Anzahl Datensätze: 287
min. Temperatur: 9.1 °C
max. Temperatur: 29.7 °C
max. Windgeschwindigkeit: 20.9 km/h
Niederschlagsumme: 0.0 mm
| Datum |
Zeit |
Temp °C |
Feuchte % |
Taupunkt °C |
Luftdruck hPa |
Wind km/h |
Windrichtung |
Strahlung w/m² |
Niederschlag mm |
|---|---|---|---|---|---|---|---|---|---|
| 12.06.2025 | 00:03 | 12.8 | 84 | 10.2 | 1019.1 | 0.0 | SSW | 0 | 0.0 |
| 12.06.2025 | 00:09 | 12.7 | 84 | 10.1 | 1019.1 | 0.0 | SSW | 0 | 0.0 |
| 12.06.2025 | 00:12 | 12.6 | 84 | 10.0 | 1019.1 | 0.0 | SSW | 0 | 0.0 |
| 12.06.2025 | 00:18 | 12.5 | 84 | 9.9 | 1019.2 | 0.0 | SSW | 0 | 0.0 |
| 12.06.2025 | 00:24 | 12.4 | 84 | 9.8 | 1019.1 | 0.0 | SSW | 0 | 0.0 |
| 12.06.2025 | 00:27 | 12.4 | 84 | 9.8 | 1019.1 | 0.0 | SSW | 0 | 0.0 |
| 12.06.2025 | 00:33 | 12.2 | 84 | 9.6 | 1019.2 | 0.0 | SSW | 0 | 0.0 |
| 12.06.2025 | 00:39 | 12.0 | 85 | 9.6 | 1019.0 | 0.0 | SSW | 0 | 0.0 |
| 12.06.2025 | 00:42 | 11.9 | 85 | 9.5 | 1018.9 | 0.0 | SSW | 0 | 0.0 |
| 12.06.2025 | 00:48 | 11.8 | 85 | 9.4 | 1018.9 | 0.0 | SSW | 0 | 0.0 |
| 12.06.2025 | 00:54 | 11.7 | 86 | 9.4 | 1018.8 | 0.0 | SSW | 0 | 0.0 |
| 12.06.2025 | 00:57 | 11.6 | 86 | 9.3 | 1018.8 | 0.0 | SSW | 0 | 0.0 |
| 12.06.2025 | 01:03 | 11.4 | 86 | 9.1 | 1018.7 | 0.0 | SSW | 0 | 0.0 |
| 12.06.2025 | 01:09 | 11.3 | 86 | 9.0 | 1018.8 | 0.0 | SSW | 0 | 0.0 |
| 12.06.2025 | 01:12 | 11.3 | 86 | 9.0 | 1018.7 | 0.0 | SSW | 0 | 0.0 |
| 12.06.2025 | 01:18 | 11.3 | 86 | 9.0 | 1018.7 | 0.0 | SSW | 0 | 0.0 |
| 12.06.2025 | 01:24 | 11.3 | 87 | 9.2 | 1018.7 | 0.0 | SSW | 0 | 0.0 |
| 12.06.2025 | 01:27 | 11.3 | 87 | 9.2 | 1018.6 | 0.0 | SSW | 0 | 0.0 |
| 12.06.2025 | 01:33 | 11.3 | 87 | 9.2 | 1018.6 | 0.0 | NW | 0 | 0.0 |
| 12.06.2025 | 01:39 | 11.2 | 87 | 9.1 | 1018.6 | 1.4 | NW | 0 | 0.0 |
| 12.06.2025 | 01:42 | 11.2 | 87 | 9.1 | 1018.5 | 1.4 | NW | 0 | 0.0 |
| 12.06.2025 | 01:48 | 11.1 | 87 | 9.0 | 1018.4 | 1.4 | NW | 0 | 0.0 |
| 12.06.2025 | 01:54 | 11.1 | 87 | 9.0 | 1018.4 | 1.4 | NNW | 0 | 0.0 |
| 12.06.2025 | 01:57 | 11.0 | 87 | 8.9 | 1018.3 | 0.0 | NNW | 0 | 0.0 |
| 12.06.2025 | 02:03 | 10.9 | 86 | 8.6 | 1018.2 | 0.0 | NNW | 0 | 0.0 |
| 12.06.2025 | 02:09 | 10.8 | 86 | 8.6 | 1018.1 | 1.4 | N | 0 | 0.0 |
| 12.06.2025 | 02:12 | 10.8 | 86 | 8.6 | 1018.0 | 1.4 | N | 0 | 0.0 |
| 12.06.2025 | 02:18 | 10.8 | 87 | 8.7 | 1018.0 | 1.4 | N | 0 | 0.0 |
| 12.06.2025 | 02:24 | 10.7 | 87 | 8.6 | 1017.9 | 0.0 | N | 0 | 0.0 |
| 12.06.2025 | 02:27 | 10.7 | 87 | 8.6 | 1017.8 | 1.4 | N | 0 | 0.0 |
| 12.06.2025 | 02:33 | 10.6 | 87 | 8.5 | 1017.8 | 0.0 | N | 0 | 0.0 |
| 12.06.2025 | 02:39 | 10.5 | 87 | 8.4 | 1017.6 | 1.4 | N | 0 | 0.0 |
| 12.06.2025 | 02:42 | 10.5 | 87 | 8.4 | 1017.6 | 1.4 | N | 0 | 0.0 |
| 12.06.2025 | 02:48 | 10.4 | 87 | 8.3 | 1017.6 | 1.4 | N | 0 | 0.0 |
| 12.06.2025 | 02:54 | 10.3 | 87 | 8.2 | 1017.5 | 1.4 | N | 0 | 0.0 |
| 12.06.2025 | 02:57 | 10.3 | 87 | 8.2 | 1017.5 | 1.4 | N | 0 | 0.0 |
| 12.06.2025 | 03:03 | 10.3 | 87 | 8.2 | 1017.5 | 0.0 | N | 0 | 0.0 |
| 12.06.2025 | 03:09 | 10.3 | 87 | 8.2 | 1017.5 | 0.0 | N | 0 | 0.0 |
| 12.06.2025 | 03:12 | 10.3 | 87 | 8.2 | 1017.5 | 0.0 | N | 0 | 0.0 |
| 12.06.2025 | 03:18 | 10.2 | 87 | 8.1 | 1017.5 | 1.4 | N | 0 | 0.0 |
| 12.06.2025 | 03:24 | 10.2 | 87 | 8.1 | 1017.5 | 0.0 | N | 0 | 0.0 |
| 12.06.2025 | 03:27 | 10.2 | 87 | 8.1 | 1017.5 | 0.0 | N | 0 | 0.0 |
| 12.06.2025 | 03:33 | 10.2 | 87 | 8.1 | 1017.5 | 0.0 | N | 0 | 0.0 |
| 12.06.2025 | 03:39 | 10.1 | 87 | 8.0 | 1017.4 | 0.0 | N | 0 | 0.0 |
| 12.06.2025 | 03:42 | 10.1 | 87 | 8.0 | 1017.4 | 0.0 | N | 0 | 0.0 |
| 12.06.2025 | 03:48 | 10.1 | 87 | 8.0 | 1017.3 | 0.0 | N | 0 | 0.0 |
| 12.06.2025 | 03:54 | 10.0 | 87 | 7.9 | 1017.3 | 0.0 | N | 0 | 0.0 |
| 12.06.2025 | 03:57 | 10.0 | 87 | 7.9 | 1017.3 | 0.0 | N | 0 | 0.0 |
| 12.06.2025 | 04:03 | 9.9 | 87 | 7.8 | 1017.3 | 0.0 | N | 0 | 0.0 |
| 12.06.2025 | 04:09 | 9.9 | 87 | 7.8 | 1017.4 | 1.4 | N | 0 | 0.0 |
| 12.06.2025 | 04:12 | 9.9 | 87 | 7.8 | 1017.4 | 1.4 | N | 0 | 0.0 |
| 12.06.2025 | 04:18 | 9.9 | 87 | 7.8 | 1017.4 | 0.0 | N | 0 | 0.0 |
| 12.06.2025 | 04:24 | 9.9 | 87 | 7.8 | 1017.4 | 0.0 | N | 0 | 0.0 |
| 12.06.2025 | 04:27 | 9.9 | 87 | 7.8 | 1017.3 | 0.0 | N | 0 | 0.0 |
| 12.06.2025 | 04:33 | 9.9 | 87 | 7.8 | 1017.3 | 0.0 | N | 0 | 0.0 |
| 12.06.2025 | 04:39 | 9.8 | 87 | 7.7 | 1017.4 | 0.0 | N | 0 | 0.0 |
| 12.06.2025 | 04:42 | 9.8 | 87 | 7.7 | 1017.5 | 0.0 | N | 0 | 0.0 |
| 12.06.2025 | 04:48 | 9.7 | 88 | 7.8 | 1017.4 | 0.0 | N | 0 | 0.0 |
| 12.06.2025 | 04:54 | 9.6 | 87 | 7.5 | 1017.4 | 0.0 | N | 0 | 0.0 |
| 12.06.2025 | 04:57 | 9.6 | 87 | 7.5 | 1017.4 | 0.0 | N | 0 | 0.0 |
| 12.06.2025 | 05:03 | 9.4 | 88 | 7.5 | 1017.3 | 0.0 | N | 0 | 0.0 |
| 12.06.2025 | 05:09 | 9.3 | 88 | 7.4 | 1017.4 | 0.0 | N | 0 | 0.0 |
| 12.06.2025 | 05:12 | 9.3 | 88 | 7.4 | 1017.4 | 0.0 | N | 0 | 0.0 |
| 12.06.2025 | 05:18 | 9.3 | 88 | 7.4 | 1017.4 | 0.0 | N | 0 | 0.0 |
| 12.06.2025 | 05:24 | 9.2 | 88 | 7.3 | 1017.2 | 0.0 | N | 0 | 0.0 |
| 12.06.2025 | 05:27 | 9.2 | 88 | 7.3 | 1017.3 | 0.0 | N | 0 | 0.0 |
| 12.06.2025 | 05:33 | 9.1 | 88 | 7.2 | 1017.1 | 0.0 | N | 0 | 0.0 |
| 12.06.2025 | 05:39 | 9.1 | 88 | 7.2 | 1017.2 | 0.0 | N | 5 | 0.0 |
| 12.06.2025 | 05:42 | 9.1 | 88 | 7.2 | 1017.2 | 0.0 | N | 7 | 0.0 |
| 12.06.2025 | 05:48 | 9.1 | 88 | 7.2 | 1017.2 | 0.0 | N | 9 | 0.0 |
| 12.06.2025 | 05:54 | 9.1 | 88 | 7.2 | 1017.2 | 0.0 | N | 11 | 0.0 |
| 12.06.2025 | 05:57 | 9.1 | 88 | 7.2 | 1017.2 | 0.0 | N | 12 | 0.0 |
| 12.06.2025 | 06:03 | 9.1 | 88 | 7.2 | 1017.1 | 0.0 | N | 14 | 0.0 |
| 12.06.2025 | 06:09 | 9.2 | 88 | 7.3 | 1017.1 | 0.0 | N | 16 | 0.0 |
| 12.06.2025 | 06:12 | 9.2 | 88 | 7.3 | 1017.1 | 0.0 | N | 16 | 0.0 |
| 12.06.2025 | 06:18 | 9.2 | 88 | 7.3 | 1017.0 | 0.0 | N | 18 | 0.0 |
| 12.06.2025 | 06:24 | 9.2 | 88 | 7.3 | 1016.9 | 0.0 | N | 19 | 0.0 |
| 12.06.2025 | 06:27 | 9.3 | 88 | 7.4 | 1017.0 | 0.0 | N | 21 | 0.0 |
| 12.06.2025 | 06:33 | 9.3 | 88 | 7.4 | 1017.1 | 0.0 | N | 21 | 0.0 |
| 12.06.2025 | 06:39 | 9.4 | 88 | 7.5 | 1017.1 | 0.0 | N | 23 | 0.0 |
| 12.06.2025 | 06:42 | 9.4 | 89 | 7.7 | 1017.1 | 0.0 | N | 25 | 0.0 |
| 12.06.2025 | 06:48 | 9.5 | 89 | 7.8 | 1017.2 | 0.0 | N | 26 | 0.0 |
| 12.06.2025 | 06:54 | 9.6 | 88 | 7.7 | 1017.2 | 1.4 | N | 26 | 0.0 |
| 12.06.2025 | 06:57 | 9.6 | 88 | 7.7 | 1017.3 | 1.4 | N | 28 | 0.0 |
| 12.06.2025 | 07:03 | 9.7 | 88 | 7.8 | 1017.3 | 0.0 | N | 30 | 0.0 |
| 12.06.2025 | 07:09 | 9.9 | 89 | 8.2 | 1017.3 | 0.0 | N | 32 | 0.0 |
| 12.06.2025 | 07:12 | 9.9 | 89 | 8.2 | 1017.4 | 0.0 | N | 32 | 0.0 |
| 12.06.2025 | 07:18 | 10.1 | 88 | 8.2 | 1017.4 | 0.0 | N | 33 | 0.0 |
| 12.06.2025 | 07:24 | 10.2 | 88 | 8.3 | 1017.3 | 0.0 | N | 35 | 0.0 |
| 12.06.2025 | 07:27 | 10.3 | 88 | 8.4 | 1017.3 | 0.0 | N | 35 | 0.0 |
| 12.06.2025 | 07:33 | 10.4 | 88 | 8.5 | 1017.3 | 0.0 | N | 35 | 0.0 |
| 12.06.2025 | 07:39 | 10.7 | 88 | 8.8 | 1017.3 | 0.0 | N | 37 | 0.0 |
| 12.06.2025 | 07:42 | 10.7 | 88 | 8.8 | 1017.3 | 0.0 | N | 37 | 0.0 |
| 12.06.2025 | 07:48 | 10.9 | 88 | 9.0 | 1017.3 | 0.0 | N | 39 | 0.0 |
| 12.06.2025 | 07:54 | 11.2 | 88 | 9.3 | 1017.4 | 0.0 | N | 40 | 0.0 |
| 12.06.2025 | 07:57 | 11.3 | 88 | 9.4 | 1017.4 | 0.0 | N | 40 | 0.0 |
| 12.06.2025 | 08:03 | 11.7 | 88 | 9.8 | 1017.3 | 0.0 | N | 40 | 0.0 |
| 12.06.2025 | 08:09 | 11.9 | 87 | 9.8 | 1017.3 | 0.0 | NNW | 42 | 0.0 |
| 12.06.2025 | 08:12 | 12.1 | 87 | 10.0 | 1017.2 | 0.0 | ONO | 42 | 0.0 |
| 12.06.2025 | 08:18 | 12.4 | 86 | 10.1 | 1017.2 | 0.0 | NO | 44 | 0.0 |
| 12.06.2025 | 08:24 | 12.9 | 85 | 10.4 | 1017.2 | 0.0 | OSO | 44 | 0.0 |
| 12.06.2025 | 08:27 | 13.1 | 85 | 10.6 | 1017.1 | 0.0 | ONO | 44 | 0.0 |
| 12.06.2025 | 08:33 | 13.5 | 83 | 10.7 | 1017.1 | 1.4 | NO | 46 | 0.0 |
| 12.06.2025 | 08:39 | 14.0 | 81 | 10.8 | 1017.0 | 1.4 | SO | 47 | 0.0 |
| 12.06.2025 | 08:42 | 14.3 | 80 | 10.9 | 1017.0 | 1.4 | N | 49 | 0.0 |
| 12.06.2025 | 08:48 | 14.7 | 79 | 11.1 | 1017.0 | 1.4 | OSO | 137 | 0.0 |
| 12.06.2025 | 08:54 | 15.2 | 76 | 11.0 | 1016.9 | 3.2 | NNO | 438 | 0.0 |
| 12.06.2025 | 08:57 | 15.4 | 75 | 11.0 | 1016.9 | 3.2 | NNO | 450 | 0.0 |
| 12.06.2025 | 09:03 | 15.7 | 75 | 11.3 | 1016.8 | 1.4 | ONO | 468 | 0.0 |
| 12.06.2025 | 09:09 | 16.1 | 74 | 11.5 | 1016.6 | 1.4 | NNW | 480 | 0.0 |
| 12.06.2025 | 09:12 | 16.4 | 74 | 11.8 | 1016.6 | 1.4 | NO | 487 | 0.0 |
| 12.06.2025 | 09:18 | 17.0 | 71 | 11.7 | 1016.6 | 3.2 | NNO | 497 | 0.0 |
| 12.06.2025 | 09:24 | 17.5 | 70 | 12.0 | 1016.6 | 3.2 | NW | 513 | 0.0 |
| 12.06.2025 | 09:27 | 17.7 | 67 | 11.5 | 1016.5 | 3.2 | W | 520 | 0.0 |
| 12.06.2025 | 09:33 | 18.1 | 66 | 11.6 | 1016.7 | 3.2 | NNW | 534 | 0.0 |
| 12.06.2025 | 09:39 | 18.4 | 64 | 11.5 | 1016.8 | 4.7 | NNW | 550 | 0.0 |
| 12.06.2025 | 09:42 | 18.6 | 65 | 11.9 | 1016.8 | 4.7 | W | 555 | 0.0 |
| 12.06.2025 | 09:48 | 19.0 | 63 | 11.8 | 1016.9 | 1.4 | SW | 570 | 0.0 |
| 12.06.2025 | 09:54 | 19.3 | 62 | 11.8 | 1016.9 | 3.2 | NW | 582 | 0.0 |
| 12.06.2025 | 09:57 | 19.4 | 62 | 11.9 | 1016.9 | 3.2 | ONO | 591 | 0.0 |
| 12.06.2025 | 10:03 | 19.7 | 60 | 11.7 | 1016.9 | 3.2 | NNW | 606 | 0.0 |
| 12.06.2025 | 10:09 | 19.8 | 61 | 12.1 | 1016.8 | 4.7 | NW | 615 | 0.0 |
| 12.06.2025 | 10:12 | 20.0 | 61 | 12.2 | 1016.8 | 4.7 | SW | 622 | 0.0 |
| 12.06.2025 | 10:18 | 20.0 | 61 | 12.2 | 1017.0 | 4.7 | W | 631 | 0.0 |
| 12.06.2025 | 10:24 | 20.2 | 61 | 12.4 | 1016.9 | 3.2 | N | 643 | 0.0 |
| 12.06.2025 | 10:27 | 20.3 | 61 | 12.5 | 1016.9 | 3.2 | N | 649 | 0.0 |
| 12.06.2025 | 10:33 | 20.6 | 61 | 12.8 | 1016.7 | 4.7 | N | 657 | 0.0 |
| 12.06.2025 | 10:39 | 20.8 | 60 | 12.7 | 1016.6 | 4.7 | NNW | 673 | 0.0 |
| 12.06.2025 | 10:42 | 20.8 | 60 | 12.7 | 1016.4 | 4.7 | NW | 675 | 0.0 |
| 12.06.2025 | 10:48 | 21.2 | 61 | 13.4 | 1016.4 | 4.7 | SSO | 691 | 0.0 |
| 12.06.2025 | 10:54 | 21.3 | 59 | 13.0 | 1016.5 | 3.2 | WSW | 703 | 0.0 |
| 12.06.2025 | 10:57 | 21.4 | 60 | 13.3 | 1016.6 | 3.2 | NNW | 707 | 0.0 |
| 12.06.2025 | 11:03 | 21.9 | 59 | 13.5 | 1016.7 | 4.7 | NW | 722 | 0.0 |
| 12.06.2025 | 11:09 | 22.2 | 57 | 13.3 | 1016.6 | 4.7 | NNW | 731 | 0.0 |
| 12.06.2025 | 11:12 | 22.3 | 57 | 13.4 | 1016.5 | 4.7 | WNW | 735 | 0.0 |
| 12.06.2025 | 11:18 | 22.6 | 57 | 13.6 | 1016.6 | 4.7 | NNW | 707 | 0.0 |
| 12.06.2025 | 11:24 | 22.8 | 57 | 13.8 | 1016.6 | 3.2 | NO | 742 | 0.0 |
| 12.06.2025 | 11:27 | 23.1 | 57 | 14.1 | 1016.5 | 3.2 | N | 752 | 0.0 |
| 12.06.2025 | 11:33 | 23.3 | 56 | 14.0 | 1016.4 | 3.2 | SW | 756 | 0.0 |
| 12.06.2025 | 11:39 | 23.6 | 55 | 14.0 | 1016.5 | 4.7 | NO | 759 | 0.0 |
| 12.06.2025 | 11:42 | 23.8 | 53 | 13.6 | 1016.4 | 4.7 | NNO | 765 | 0.0 |
| 12.06.2025 | 11:48 | 23.7 | 53 | 13.6 | 1016.1 | 6.5 | NW | 772 | 0.0 |
| 12.06.2025 | 11:54 | 24.0 | 52 | 13.5 | 1015.8 | 4.7 | N | 775 | 0.0 |
| 12.06.2025 | 11:57 | 24.2 | 53 | 14.0 | 1015.8 | 4.7 | N | 779 | 0.0 |
| 12.06.2025 | 12:03 | 24.4 | 51 | 13.6 | 1015.7 | 4.7 | NNW | 788 | 0.0 |
| 12.06.2025 | 12:09 | 24.3 | 50 | 13.2 | 1015.6 | 7.9 | SSO | 791 | 0.0 |
| 12.06.2025 | 12:12 | 24.3 | 49 | 12.9 | 1015.9 | 7.9 | NNW | 793 | 0.0 |
| 12.06.2025 | 12:18 | 24.3 | 49 | 12.9 | 1016.0 | 7.9 | WSW | 793 | 0.0 |
| 12.06.2025 | 12:24 | 24.4 | 50 | 13.3 | 1015.9 | 4.7 | NNO | 798 | 0.0 |
| 12.06.2025 | 12:27 | 24.7 | 50 | 13.6 | 1015.8 | 4.7 | N | 800 | 0.0 |
| 12.06.2025 | 12:33 | 25.1 | 49 | 13.6 | 1015.8 | 4.7 | W | 803 | 0.0 |
| 12.06.2025 | 12:39 | 25.6 | 49 | 14.1 | 1015.8 | 3.2 | NNW | 807 | 0.0 |
| 12.06.2025 | 12:42 | 25.7 | 48 | 13.9 | 1015.8 | 4.7 | NNW | 805 | 0.0 |
| 12.06.2025 | 12:48 | 25.5 | 48 | 13.7 | 1015.9 | 4.7 | NW | 809 | 0.0 |
| 12.06.2025 | 12:54 | 25.6 | 47 | 13.5 | 1015.7 | 6.5 | NNW | 812 | 0.0 |
| 12.06.2025 | 12:57 | 25.8 | 48 | 14.0 | 1015.6 | 4.7 | S | 812 | 0.0 |
| 12.06.2025 | 13:03 | 25.8 | 47 | 13.6 | 1015.6 | 4.7 | N | 810 | 0.0 |
| 12.06.2025 | 13:09 | 25.8 | 48 | 14.0 | 1015.6 | 4.7 | SSW | 809 | 0.0 |
| 12.06.2025 | 13:12 | 25.7 | 48 | 13.9 | 1015.6 | 4.7 | N | 810 | 0.0 |
| 12.06.2025 | 13:18 | 25.8 | 47 | 13.6 | 1015.7 | 6.5 | NNW | 821 | 0.0 |
| 12.06.2025 | 13:24 | 25.6 | 48 | 13.8 | 1015.6 | 6.5 | OSO | 817 | 0.0 |
| 12.06.2025 | 13:27 | 25.9 | 49 | 14.4 | 1015.5 | 4.7 | N | 817 | 0.0 |
| 12.06.2025 | 13:33 | 26.4 | 47 | 14.2 | 1015.7 | 4.7 | NW | 823 | 0.0 |
| 12.06.2025 | 13:39 | 26.3 | 47 | 14.1 | 1015.7 | 6.5 | SW | 756 | 0.0 |
| 12.06.2025 | 13:42 | 26.3 | 47 | 14.1 | 1015.7 | 6.5 | N | 779 | 0.0 |
| 12.06.2025 | 13:48 | 26.4 | 47 | 14.2 | 1015.8 | 4.7 | OSO | 807 | 0.0 |
| 12.06.2025 | 13:54 | 26.2 | 47 | 14.0 | 1015.8 | 6.5 | W | 777 | 0.0 |
| 12.06.2025 | 13:57 | 26.1 | 48 | 14.2 | 1015.7 | 6.5 | WNW | 737 | 0.0 |
| 12.06.2025 | 14:03 | 26.2 | 48 | 14.3 | 1015.6 | 6.5 | WNW | 773 | 0.0 |
| 12.06.2025 | 14:09 | 26.6 | 47 | 14.4 | 1015.5 | 4.7 | ONO | 751 | 0.0 |
| 12.06.2025 | 14:12 | 26.6 | 47 | 14.4 | 1015.5 | 6.5 | SW | 608 | 0.0 |
| 12.06.2025 | 14:18 | 26.4 | 49 | 14.8 | 1015.4 | 6.5 | NNW | 626 | 0.0 |
| 12.06.2025 | 14:24 | 26.8 | 47 | 14.5 | 1015.3 | 4.7 | NNW | 715 | 0.0 |
| 12.06.2025 | 14:27 | 26.7 | 48 | 14.8 | 1015.4 | 4.7 | W | 747 | 0.0 |
| 12.06.2025 | 14:33 | 26.8 | 48 | 14.9 | 1015.5 | 6.5 | NNW | 798 | 0.0 |
| 12.06.2025 | 14:39 | 27.2 | 48 | 15.2 | 1015.5 | 4.7 | NW | 761 | 0.0 |
| 12.06.2025 | 14:42 | 27.4 | 47 | 15.1 | 1015.5 | 4.7 | WSW | 756 | 0.0 |
| 12.06.2025 | 14:48 | 27.6 | 48 | 15.6 | 1015.4 | 4.7 | N | 693 | 0.0 |
| 12.06.2025 | 14:54 | 27.9 | 46 | 15.2 | 1015.3 | 6.5 | WSW | 679 | 0.0 |
| 12.06.2025 | 14:57 | 27.8 | 47 | 15.5 | 1015.4 | 4.7 | NW | 731 | 0.0 |
| 12.06.2025 | 15:03 | 27.6 | 47 | 15.3 | 1015.3 | 6.5 | WSW | 738 | 0.0 |
| 12.06.2025 | 15:09 | 27.4 | 47 | 15.1 | 1015.2 | 4.7 | O | 714 | 0.0 |
| 12.06.2025 | 15:12 | 27.5 | 47 | 15.2 | 1015.3 | 4.7 | NW | 708 | 0.0 |
| 12.06.2025 | 15:18 | 27.7 | 47 | 15.4 | 1015.3 | 4.7 | SW | 559 | 0.0 |
| 12.06.2025 | 15:24 | 27.6 | 47 | 15.3 | 1015.4 | 4.7 | WSW | 568 | 0.0 |
| 12.06.2025 | 15:27 | 27.5 | 47 | 15.2 | 1015.4 | 6.5 | SSW | 571 | 0.0 |
| 12.06.2025 | 15:33 | 27.8 | 47 | 15.5 | 1015.3 | 4.7 | NW | 696 | 0.0 |
| 12.06.2025 | 15:39 | 28.3 | 46 | 15.6 | 1015.1 | 4.7 | N | 624 | 0.0 |
| 12.06.2025 | 15:42 | 28.2 | 46 | 15.5 | 1015.0 | 4.7 | ONO | 563 | 0.0 |
| 12.06.2025 | 15:48 | 28.3 | 47 | 15.9 | 1015.2 | 6.5 | N | 455 | 0.0 |
| 12.06.2025 | 15:54 | 28.2 | 47 | 15.8 | 1015.1 | 6.5 | ONO | 575 | 0.0 |
| 12.06.2025 | 15:57 | 28.4 | 46 | 15.7 | 1015.1 | 6.5 | WSW | 482 | 0.0 |
| 12.06.2025 | 16:03 | 28.6 | 46 | 15.8 | 1015.1 | 4.7 | N | 603 | 0.0 |
| 12.06.2025 | 16:09 | 28.8 | 45 | 15.7 | 1015.2 | 4.7 | WSW | 582 | 0.0 |
| 12.06.2025 | 16:12 | 28.7 | 45 | 15.6 | 1015.2 | 4.7 | W | 606 | 0.0 |
| 12.06.2025 | 16:18 | 28.8 | 45 | 15.7 | 1015.0 | 4.7 | WNW | 510 | 0.0 |
| 12.06.2025 | 16:24 | 28.8 | 45 | 15.7 | 1014.9 | 4.7 | SSW | 520 | 0.0 |
| 12.06.2025 | 16:27 | 28.8 | 45 | 15.7 | 1015.0 | 4.7 | S | 499 | 0.0 |
| 12.06.2025 | 16:33 | 28.7 | 46 | 15.9 | 1015.2 | 4.7 | NNW | 452 | 0.0 |
| 12.06.2025 | 16:39 | 29.1 | 45 | 16.0 | 1015.2 | 3.2 | WSW | 496 | 0.0 |
| 12.06.2025 | 16:42 | 29.2 | 45 | 16.0 | 1015.2 | 3.2 | NW | 522 | 0.0 |
| 12.06.2025 | 16:48 | 29.3 | 45 | 16.1 | 1015.2 | 3.2 | NNO | 536 | 0.0 |
| 12.06.2025 | 16:54 | 29.3 | 44 | 15.8 | 1015.3 | 3.2 | NNO | 548 | 0.0 |
| 12.06.2025 | 16:57 | 29.3 | 45 | 16.1 | 1015.3 | 3.2 | NNO | 538 | 0.0 |
| 12.06.2025 | 17:03 | 29.3 | 43 | 15.4 | 1015.1 | 3.2 | SW | 441 | 0.0 |
| 12.06.2025 | 17:09 | 29.2 | 45 | 16.0 | 1015.2 | 4.7 | W | 462 | 0.0 |
| 12.06.2025 | 17:12 | 29.3 | 45 | 16.1 | 1015.1 | 4.7 | W | 413 | 0.0 |
| 12.06.2025 | 17:18 | 29.4 | 44 | 15.9 | 1015.0 | 4.7 | W | 432 | 0.0 |
| 12.06.2025 | 17:24 | 29.4 | 45 | 16.2 | 1015.0 | 4.7 | O | 434 | 0.0 |
| 12.06.2025 | 17:27 | 29.4 | 44 | 15.9 | 1015.0 | 4.7 | SO | 434 | 0.0 |
| 12.06.2025 | 17:33 | 29.1 | 45 | 16.0 | 1015.1 | 4.7 | W | 406 | 0.0 |
| 12.06.2025 | 17:39 | 29.1 | 45 | 16.0 | 1015.0 | 4.7 | NNW | 418 | 0.0 |
| 12.06.2025 | 17:42 | 29.0 | 45 | 15.9 | 1015.0 | 6.5 | NW | 399 | 0.0 |
| 12.06.2025 | 17:48 | 29.0 | 46 | 16.2 | 1015.0 | 4.7 | WSW | 362 | 0.0 |
| 12.06.2025 | 17:54 | 29.5 | 46 | 16.7 | 1015.0 | 1.4 | S | 366 | 0.0 |
| 12.06.2025 | 17:57 | 29.4 | 45 | 16.2 | 1015.0 | 1.4 | ONO | 362 | 0.0 |
| 12.06.2025 | 18:03 | 29.4 | 45 | 16.2 | 1015.0 | 3.2 | N | 315 | 0.0 |
| 12.06.2025 | 18:09 | 29.6 | 45 | 16.4 | 1015.1 | 3.2 | SSW | 322 | 0.0 |
| 12.06.2025 | 18:12 | 29.4 | 45 | 16.2 | 1015.1 | 3.2 | SW | 325 | 0.0 |
| 12.06.2025 | 18:18 | 29.5 | 46 | 16.7 | 1015.0 | 3.2 | NW | 309 | 0.0 |
| 12.06.2025 | 18:24 | 29.5 | 46 | 16.7 | 1014.9 | 3.2 | N | 295 | 0.0 |
| 12.06.2025 | 18:27 | 29.6 | 46 | 16.8 | 1015.1 | 3.2 | W | 287 | 0.0 |
| 12.06.2025 | 18:33 | 29.7 | 45 | 16.5 | 1015.1 | 3.2 | W | 271 | 0.0 |
| 12.06.2025 | 18:39 | 29.4 | 46 | 16.6 | 1015.2 | 3.2 | NW | 255 | 0.0 |
| 12.06.2025 | 18:42 | 29.3 | 46 | 16.5 | 1015.2 | 3.2 | WSW | 248 | 0.0 |
| 12.06.2025 | 18:48 | 29.2 | 46 | 16.4 | 1015.2 | 3.2 | NW | 232 | 0.0 |
| 12.06.2025 | 18:54 | 29.2 | 47 | 16.7 | 1015.2 | 4.7 | N | 216 | 0.0 |
| 12.06.2025 | 18:57 | 29.2 | 47 | 16.7 | 1015.3 | 3.2 | SO | 213 | 0.0 |
| 12.06.2025 | 19:03 | 28.9 | 48 | 16.8 | 1015.3 | 3.2 | WSW | 200 | 0.0 |
| 12.06.2025 | 19:09 | 29.1 | 47 | 16.6 | 1015.3 | 3.2 | NNW | 188 | 0.0 |
| 12.06.2025 | 19:12 | 29.1 | 47 | 16.6 | 1015.3 | 3.2 | NW | 179 | 0.0 |
| 12.06.2025 | 19:18 | 29.1 | 48 | 17.0 | 1015.4 | 3.2 | WSW | 165 | 0.0 |
| 12.06.2025 | 19:24 | 28.9 | 51 | 17.7 | 1015.4 | 1.4 | WNW | 151 | 0.0 |
| 12.06.2025 | 19:27 | 28.6 | 50 | 17.2 | 1015.4 | 1.4 | WNW | 146 | 0.0 |
| 12.06.2025 | 19:33 | 28.2 | 53 | 17.7 | 1015.5 | 1.4 | NW | 123 | 0.0 |
| 12.06.2025 | 19:39 | 28.2 | 54 | 18.0 | 1015.4 | 1.4 | NNW | 118 | 0.0 |
| 12.06.2025 | 19:42 | 28.1 | 52 | 17.3 | 1015.4 | 1.4 | W | 111 | 0.0 |
| 12.06.2025 | 19:48 | 27.8 | 55 | 17.9 | 1015.5 | 1.4 | WNW | 67 | 0.0 |
| 12.06.2025 | 19:54 | 27.4 | 58 | 18.4 | 1015.5 | 1.4 | SW | 60 | 0.0 |
| 12.06.2025 | 19:57 | 26.9 | 60 | 18.5 | 1015.5 | 1.4 | NNW | 56 | 0.0 |
| 12.06.2025 | 20:03 | 26.4 | 62 | 18.5 | 1015.7 | 1.4 | WNW | 53 | 0.0 |
| 12.06.2025 | 20:09 | 26.1 | 63 | 18.5 | 1015.7 | 1.4 | NW | 49 | 0.0 |
| 12.06.2025 | 20:12 | 25.9 | 63 | 18.3 | 1015.8 | 1.4 | NNW | 49 | 0.0 |
| 12.06.2025 | 20:18 | 25.5 | 65 | 18.4 | 1015.9 | 1.4 | NNW | 46 | 0.0 |
| 12.06.2025 | 20:24 | 25.2 | 65 | 18.2 | 1015.8 | 1.4 | NNW | 44 | 0.0 |
| 12.06.2025 | 20:27 | 25.0 | 66 | 18.2 | 1015.8 | 1.4 | NNW | 42 | 0.0 |
| 12.06.2025 | 20:33 | 24.7 | 68 | 18.4 | 1015.8 | 1.4 | NW | 39 | 0.0 |
| 12.06.2025 | 20:39 | 24.5 | 68 | 18.2 | 1015.8 | 1.4 | N | 35 | 0.0 |
| 12.06.2025 | 20:42 | 24.4 | 69 | 18.3 | 1015.8 | 1.4 | NNW | 32 | 0.0 |
| 12.06.2025 | 20:48 | 24.2 | 70 | 18.4 | 1015.9 | 1.4 | NW | 28 | 0.0 |
| 12.06.2025 | 20:54 | 23.8 | 70 | 18.0 | 1015.8 | 1.4 | NW | 25 | 0.0 |
| 12.06.2025 | 20:57 | 23.7 | 70 | 17.9 | 1015.8 | 1.4 | NNW | 23 | 0.0 |
| 12.06.2025 | 21:03 | 23.5 | 71 | 17.9 | 1015.8 | 1.4 | NNW | 19 | 0.0 |
| 12.06.2025 | 21:09 | 23.3 | 72 | 18.0 | 1015.9 | 1.4 | NNW | 16 | 0.0 |
| 12.06.2025 | 21:12 | 23.2 | 72 | 17.9 | 1016.0 | 1.4 | NW | 14 | 0.0 |
| 12.06.2025 | 21:18 | 22.9 | 73 | 17.8 | 1016.0 | 1.4 | NW | 11 | 0.0 |
| 12.06.2025 | 21:24 | 22.7 | 73 | 17.6 | 1016.1 | 1.4 | NNW | 7 | 0.0 |
| 12.06.2025 | 21:27 | 22.6 | 74 | 17.7 | 1016.2 | 1.4 | NNW | 7 | 0.0 |
| 12.06.2025 | 21:33 | 22.4 | 74 | 17.5 | 1016.3 | 0.0 | W | 5 | 0.0 |
| 12.06.2025 | 21:39 | 22.2 | 75 | 17.6 | 1016.4 | 0.0 | W | 0 | 0.0 |
| 12.06.2025 | 21:42 | 22.0 | 75 | 17.4 | 1016.4 | 0.0 | W | 0 | 0.0 |
| 12.06.2025 | 21:48 | 21.7 | 76 | 17.3 | 1016.5 | 0.0 | WSW | 0 | 0.0 |
| 12.06.2025 | 21:54 | 21.4 | 77 | 17.2 | 1016.6 | 0.0 | WSW | 0 | 0.0 |
| 12.06.2025 | 21:57 | 21.2 | 77 | 17.0 | 1016.6 | 0.0 | SSW | 0 | 0.0 |
| 12.06.2025 | 22:03 | 21.0 | 77 | 16.8 | 1016.7 | 1.4 | SW | 0 | 0.0 |
| 12.06.2025 | 22:09 | 20.8 | 78 | 16.8 | 1016.8 | 0.0 | SW | 0 | 0.0 |
| 12.06.2025 | 22:18 | 20.4 | 79 | 16.6 | 1016.9 | 1.4 | SW | 0 | 0.0 |
| 12.06.2025 | 22:24 | 20.3 | 79 | 16.5 | 1016.9 | 0.0 | SW | 0 | 0.0 |
| 12.06.2025 | 22:27 | 20.3 | 80 | 16.7 | 1017.0 | 0.0 | SW | 0 | 0.0 |
| 12.06.2025 | 22:33 | 20.2 | 80 | 16.6 | 1017.1 | 0.0 | SW | 0 | 0.0 |
| 12.06.2025 | 22:39 | 20.0 | 80 | 16.4 | 1017.1 | 0.0 | SW | 0 | 0.0 |
| 12.06.2025 | 22:42 | 20.0 | 80 | 16.4 | 1017.1 | 0.0 | SW | 0 | 0.0 |
| 12.06.2025 | 22:48 | 19.9 | 80 | 16.3 | 1017.1 | 0.0 | SSW | 0 | 0.0 |
| 12.06.2025 | 22:54 | 19.7 | 80 | 16.2 | 1017.1 | 1.4 | SW | 0 | 0.0 |
| 12.06.2025 | 22:57 | 19.7 | 81 | 16.3 | 1017.1 | 1.4 | SW | 0 | 0.0 |
| 12.06.2025 | 23:03 | 19.5 | 81 | 16.2 | 1017.2 | 0.0 | S | 0 | 0.0 |
| 12.06.2025 | 23:09 | 19.3 | 81 | 16.0 | 1017.2 | 0.0 | SSW | 0 | 0.0 |
| 12.06.2025 | 23:12 | 19.2 | 82 | 16.1 | 1017.3 | 0.0 | SW | 0 | 0.0 |
| 12.06.2025 | 23:18 | 19.1 | 82 | 16.0 | 1017.3 | 0.0 | SW | 0 | 0.0 |
| 12.06.2025 | 23:24 | 18.9 | 82 | 15.8 | 1017.3 | 0.0 | SW | 0 | 0.0 |
| 12.06.2025 | 23:27 | 18.8 | 83 | 15.9 | 1017.4 | 0.0 | SW | 0 | 0.0 |
| 12.06.2025 | 23:33 | 18.6 | 83 | 15.7 | 1017.5 | 0.0 | SW | 0 | 0.0 |
| 12.06.2025 | 23:39 | 18.4 | 84 | 15.6 | 1017.6 | 0.0 | SSW | 0 | 0.0 |
| 12.06.2025 | 23:42 | 18.4 | 84 | 15.6 | 1017.6 | 0.0 | SSW | 0 | 0.0 |
| 12.06.2025 | 23:48 | 18.2 | 84 | 15.5 | 1017.6 | 0.0 | SSW | 0 | 0.0 |
| 12.06.2025 | 23:54 | 18.2 | 85 | 15.6 | 1017.6 | 0.0 | SSW | 0 | 0.0 |
| 12.06.2025 | 23:57 | 18.1 | 85 | 15.5 | 1017.6 | 0.0 | SSW | 0 | 0.0 |